createdAt,value
2022-08-30T00:00:38.320Z,100.00
2022-08-30T00:03:11.074Z,100.00
2022-08-30T00:05:40.931Z,100.00
2022-08-30T00:08:13.481Z,100.00
2022-08-30T00:10:44.628Z,100.00
2022-08-30T00:13:15.726Z,100.00
2022-08-30T00:15:45.733Z,100.00
2022-08-30T00:18:15.875Z,100.00
2022-08-30T00:20:45.677Z,100.00
2022-08-30T00:23:18.964Z,100.00
2022-08-30T00:25:49.035Z,100.00
2022-08-30T00:28:18.765Z,100.00
2022-08-30T00:30:49.845Z,100.00
2022-08-30T00:33:20.509Z,100.00
2022-08-30T00:35:50.535Z,100.00
2022-08-30T00:38:24.439Z,100.00
2022-08-30T00:40:54.877Z,100.00
2022-08-30T00:43:27.754Z,100.00
2022-08-30T00:45:58.507Z,100.00
2022-08-30T00:48:28.813Z,100.00
2022-08-30T00:51:02.576Z,100.00
2022-08-30T00:53:38.277Z,100.00
2022-08-30T00:56:09.293Z,100.00
2022-08-30T00:58:43.058Z,100.00
2022-08-30T01:01:13.353Z,100.00
2022-08-30T01:03:44.537Z,100.00
2022-08-30T01:06:15.865Z,100.00
2022-08-30T01:08:49.952Z,100.00
2022-08-30T01:11:23.557Z,100.00
2022-08-30T01:13:54.798Z,100.00
2022-08-30T01:16:25.577Z,100.00
2022-08-30T01:19:00.944Z,100.00
2022-08-30T01:21:36.983Z,100.00
2022-08-30T01:24:11.651Z,100.00
2022-08-30T01:26:41.442Z,100.00
2022-08-30T01:29:16.342Z,100.00
2022-08-30T01:31:46.536Z,100.00
2022-08-30T01:34:16.271Z,100.00
2022-08-30T01:36:49.038Z,100.00
2022-08-30T01:39:21.738Z,100.00
2022-08-30T01:41:51.521Z,100.00
2022-08-30T01:44:21.253Z,100.00
2022-08-30T01:46:51.227Z,100.00
2022-08-30T01:49:27.854Z,100.00
2022-08-30T01:52:00.498Z,99.96
2022-08-30T01:54:38.031Z,99.95
2022-08-30T01:57:10.054Z,99.81
2022-08-30T01:59:42.680Z,99.82
2022-08-30T02:02:12.997Z,99.73
2022-08-30T02:04:42.699Z,99.71
2022-08-30T02:07:12.660Z,99.51
2022-08-30T02:09:46.143Z,99.56
2022-08-30T02:12:16.344Z,99.43
2022-08-30T02:14:46.157Z,99.31
2022-08-30T02:17:19.560Z,99.30
2022-08-30T02:19:49.489Z,99.24
2022-08-30T02:22:21.038Z,99.19
2022-08-30T02:24:53.369Z,99.13
2022-08-30T02:27:23.785Z,99.05
2022-08-30T02:29:53.504Z,99.00
2022-08-30T02:32:23.223Z,98.75
2022-08-30T02:34:52.943Z,98.82
2022-08-30T02:37:22.668Z,98.72
2022-08-30T02:39:55.068Z,98.61
2022-08-30T02:42:24.796Z,98.55
2022-08-30T02:44:54.682Z,98.49
2022-08-30T02:47:24.411Z,98.48
2022-08-30T02:49:54.144Z,98.40
2022-08-30T02:52:27.862Z,98.38
2022-08-30T02:55:00.382Z,98.36
2022-08-30T02:57:30.166Z,98.33
2022-08-30T02:59:59.987Z,98.13
2022-08-30T03:02:30.443Z,98.08
2022-08-30T03:05:00.410Z,98.06
2022-08-30T03:07:31.265Z,98.10
2022-08-30T03:10:03.863Z,98.03
2022-08-30T03:12:34.530Z,98.01
2022-08-30T03:15:04.895Z,97.96
2022-08-30T03:17:34.644Z,98.09
2022-08-30T03:20:04.588Z,97.89
2022-08-30T03:22:34.373Z,98.00
2022-08-30T03:25:07.484Z,97.73
2022-08-30T03:27:37.542Z,97.76
2022-08-30T03:30:09.013Z,97.75
2022-08-30T03:32:39.352Z,97.88
2022-08-30T03:35:09.980Z,97.75
2022-08-30T03:37:40.061Z,97.59
2022-08-30T03:40:15.356Z,97.57
2022-08-30T03:42:45.331Z,97.61
2022-08-30T03:45:16.266Z,97.62
2022-08-30T03:47:46.243Z,97.54
2022-08-30T03:50:18.404Z,97.34
2022-08-30T03:52:49.105Z,97.55
2022-08-30T03:55:21.631Z,97.58
2022-08-30T03:57:51.387Z,97.81
2022-08-30T04:00:22.016Z,97.87
2022-08-30T04:02:51.747Z,97.82
2022-08-30T04:05:23.074Z,97.78
2022-08-30T04:07:52.831Z,98.02
2022-08-30T04:10:26.615Z,98.10
2022-08-30T04:12:56.928Z,98.16
2022-08-30T04:15:26.837Z,98.06
2022-08-30T04:17:56.706Z,98.17
2022-08-30T04:20:27.524Z,98.33
2022-08-30T04:22:57.382Z,98.33
2022-08-30T04:25:29.719Z,98.18
2022-08-30T04:27:59.431Z,98.01
2022-08-30T04:30:29.175Z,98.21
2022-08-30T04:32:59.098Z,98.20
2022-08-30T04:35:29.735Z,98.48
2022-08-30T04:37:59.955Z,98.64
2022-08-30T04:40:32.682Z,98.73
2022-08-30T04:43:02.469Z,98.85
2022-08-30T04:45:32.227Z,99.03
2022-08-30T04:48:01.992Z,99.06
2022-08-30T04:50:31.721Z,99.06
2022-08-30T04:53:01.507Z,99.22
2022-08-30T04:55:34.116Z,99.33
2022-08-30T04:58:06.028Z,99.52
2022-08-30T05:00:37.352Z,99.40
2022-08-30T05:03:07.655Z,99.50
2022-08-30T05:05:43.155Z,99.37
2022-08-30T05:08:15.541Z,99.40
2022-08-30T05:10:49.900Z,99.45
2022-08-30T05:13:30.478Z,99.54
2022-08-30T05:16:07.879Z,99.43
2022-08-30T05:18:38.235Z,99.60
2022-08-30T05:21:10.331Z,99.65
2022-08-30T05:23:40.325Z,99.54
2022-08-30T05:26:15.432Z,99.78
2022-08-30T05:28:45.281Z,99.79
2022-08-30T05:31:18.725Z,99.75
2022-08-30T05:33:49.699Z,99.85
2022-08-30T05:36:21.460Z,100.00
2022-08-30T05:38:51.499Z,99.95
2022-08-30T05:41:26.659Z,100.00
2022-08-30T05:43:58.435Z,100.00
2022-08-30T05:49:22.879Z,100.00
2022-08-30T05:51:52.631Z,100.00
2022-08-30T05:54:22.355Z,100.00
2022-08-30T05:56:54.778Z,100.00
2022-08-30T05:59:24.538Z,100.00
2022-08-30T06:01:54.364Z,100.00
2022-08-30T06:04:24.107Z,100.00
2022-08-30T06:06:54.084Z,100.00
2022-08-30T06:09:23.812Z,100.00
2022-08-30T06:11:56.154Z,100.00
2022-08-30T06:14:26.181Z,100.00
2022-08-30T06:16:55.905Z,100.00
2022-08-30T06:19:25.693Z,100.00
2022-08-30T06:21:55.520Z,100.00
2022-08-30T06:24:35.980Z,100.00
2022-08-30T06:27:14.085Z,100.00
2022-08-30T06:29:43.780Z,100.00
2022-08-30T06:32:13.580Z,100.00
2022-08-30T06:34:43.339Z,100.00
2022-08-30T06:37:29.706Z,100.00
2022-08-30T06:40:00.324Z,100.00
2022-08-30T06:42:34.535Z,100.00
2022-08-30T06:45:10.557Z,100.00
2022-08-30T06:47:41.541Z,100.00
2022-08-30T06:50:16.403Z,100.00
2022-08-30T06:52:48.078Z,99.94
2022-08-30T06:55:19.578Z,99.86
2022-08-30T06:57:52.235Z,99.50
2022-08-30T07:00:22.401Z,99.34
2022-08-30T07:02:52.162Z,99.22
2022-08-30T07:05:23.922Z,98.87
2022-08-30T07:07:55.288Z,98.32
2022-08-30T07:10:25.223Z,97.69
2022-08-30T07:12:57.630Z,97.04
2022-08-30T07:15:27.678Z,96.10
2022-08-30T07:18:11.560Z,95.34
2022-08-30T07:20:41.541Z,94.04
2022-08-30T07:23:12.157Z,93.35
2022-08-30T07:25:43.804Z,92.29
2022-08-30T07:28:16.553Z,91.38
2022-08-30T07:30:46.584Z,90.42
2022-08-30T07:33:16.414Z,89.70
2022-08-30T07:35:46.764Z,88.96
2022-08-30T07:38:16.701Z,88.06
2022-08-30T07:40:46.482Z,87.39
2022-08-30T07:43:19.108Z,86.45
2022-08-30T07:45:49.198Z,85.57
2022-08-30T07:48:19.027Z,84.81
2022-08-30T07:50:52.600Z,83.97
2022-08-30T07:53:26.572Z,83.47
2022-08-30T07:55:56.352Z,82.80
2022-08-30T07:58:29.757Z,82.31
2022-08-30T08:00:59.966Z,81.65
2022-08-30T08:03:29.871Z,81.27
2022-08-30T08:05:59.996Z,81.12
2022-08-30T08:08:29.737Z,80.64
2022-08-30T08:11:00.064Z,80.35
2022-08-30T08:13:32.839Z,80.39
2022-08-30T08:16:06.656Z,80.11
2022-08-30T08:18:36.562Z,79.88
2022-08-30T08:21:06.828Z,79.64
2022-08-30T08:23:36.801Z,79.78
2022-08-30T08:26:07.307Z,79.60
2022-08-30T08:28:39.788Z,79.57
2022-08-30T08:31:17.500Z,79.28
2022-08-30T08:33:47.551Z,79.16
2022-08-30T08:36:18.682Z,79.17
2022-08-30T08:38:48.636Z,78.91
2022-08-30T08:41:33.699Z,78.48
2022-08-30T08:44:11.565Z,78.18
2022-08-30T08:46:51.585Z,78.00
2022-08-30T08:49:24.907Z,78.05
2022-08-30T08:52:07.317Z,77.86
2022-08-30T08:54:43.226Z,77.66
2022-08-30T08:57:16.519Z,77.14
2022-08-30T08:59:51.242Z,76.70
2022-08-30T09:02:27.454Z,76.43
2022-08-30T09:05:01.310Z,76.12
2022-08-30T09:07:35.130Z,75.98
2022-08-30T09:10:05.510Z,75.86
2022-08-30T09:12:35.434Z,75.76
2022-08-30T09:15:14.709Z,75.36
2022-08-30T09:17:54.891Z,75.34
2022-08-30T09:20:33.605Z,75.13
2022-08-30T09:23:24.724Z,74.91
2022-08-30T09:25:56.539Z,74.61
2022-08-30T09:28:29.554Z,74.63
2022-08-30T09:31:12.493Z,74.32
2022-08-30T09:33:42.416Z,74.07
2022-08-30T09:36:29.758Z,73.79
2022-08-30T09:39:05.231Z,73.35
2022-08-30T09:41:41.419Z,72.91
2022-08-30T09:44:14.404Z,72.88
2022-08-30T09:46:52.418Z,72.64
2022-08-30T09:49:33.012Z,72.36
2022-08-30T09:52:20.609Z,72.04
2022-08-30T09:55:05.284Z,71.91
2022-08-30T09:57:42.636Z,71.81
2022-08-30T10:00:18.157Z,71.46
2022-08-30T10:03:13.465Z,71.27
2022-08-30T10:05:53.081Z,71.07
2022-08-30T10:08:32.012Z,70.92
2022-08-30T10:11:05.024Z,70.89
2022-08-30T10:13:58.452Z,70.94
2022-08-30T10:16:38.669Z,71.09
2022-08-30T10:19:23.336Z,70.58
2022-08-30T10:22:02.132Z,70.47
2022-08-30T10:24:38.259Z,70.71
2022-08-30T10:27:13.765Z,70.73
2022-08-30T10:29:49.911Z,70.52
2022-08-30T10:32:25.245Z,70.80
2022-08-30T10:35:03.214Z,70.81
2022-08-30T10:37:35.471Z,70.46
2022-08-30T10:40:26.202Z,70.10
2022-08-30T10:42:56.971Z,69.64
2022-08-30T10:45:31.748Z,69.60
2022-08-30T10:48:09.969Z,69.84
2022-08-30T10:50:48.878Z,70.32
2022-08-30T10:53:21.689Z,70.55
2022-08-30T10:55:56.338Z,70.74
2022-08-30T10:58:26.802Z,71.13
2022-08-30T11:01:26.721Z,71.17
2022-08-30T11:04:28.495Z,71.18
2022-08-30T11:07:10.347Z,71.32
2022-08-30T11:10:04.047Z,71.56
2022-08-30T11:12:41.605Z,71.52
2022-08-30T11:15:21.464Z,71.52
2022-08-30T11:17:59.546Z,71.60
2022-08-30T11:20:38.057Z,71.91
2022-08-30T11:23:23.417Z,72.09
2022-08-30T11:25:58.171Z,72.17
2022-08-30T11:29:03.200Z,72.20
2022-08-30T11:31:40.660Z,72.19
2022-08-30T11:34:12.166Z,72.24
2022-08-30T11:37:09.518Z,72.40
2022-08-30T11:40:01.998Z,72.38
2022-08-30T11:42:37.596Z,72.43
2022-08-30T11:45:41.585Z,72.36
2022-08-30T11:48:53.685Z,72.35
2022-08-30T11:52:23.562Z,72.19
2022-08-30T11:55:01.272Z,72.02
2022-08-30T11:57:45.518Z,71.92
2022-08-30T12:00:34.731Z,72.07
2022-08-30T12:03:07.079Z,72.28
2022-08-30T12:05:59.808Z,72.21
2022-08-30T12:08:55.184Z,72.39
2022-08-30T12:11:55.866Z,72.45
2022-08-30T12:14:54.853Z,72.54
2022-08-30T12:17:41.565Z,72.15
2022-08-30T12:20:21.440Z,71.96
2022-08-30T12:22:52.366Z,72.10
2022-08-30T12:25:31.782Z,72.08
2022-08-30T12:28:24.097Z,71.81
2022-08-30T12:30:56.868Z,71.73
2022-08-30T12:33:40.124Z,71.67
2022-08-30T12:36:15.926Z,71.82
2022-08-30T12:38:46.086Z,71.95
2022-08-30T12:41:23.537Z,71.96
2022-08-30T12:43:56.077Z,71.83
2022-08-30T12:46:29.095Z,71.48
2022-08-30T12:48:59.813Z,71.52
2022-08-30T12:51:41.189Z,71.34
2022-08-30T12:54:22.883Z,71.39
2022-08-30T12:57:25.658Z,71.53
2022-08-30T13:00:02.604Z,71.55
2022-08-30T13:02:47.433Z,71.64
2022-08-30T13:05:40.288Z,71.66
2022-08-30T13:08:22.338Z,72.08
2022-08-30T13:10:54.843Z,71.93
2022-08-30T13:13:34.443Z,72.08
2022-08-30T13:16:24.981Z,72.42
2022-08-30T13:19:18.695Z,72.74
2022-08-30T13:21:53.357Z,72.63
2022-08-30T13:24:25.570Z,72.72
2022-08-30T13:26:56.964Z,72.47
2022-08-30T13:29:29.800Z,72.92
2022-08-30T13:32:00.523Z,72.96
2022-08-30T13:34:35.450Z,72.78
2022-08-30T13:37:44.354Z,73.15
2022-08-30T13:40:00.175Z,72.95
2022-08-30T13:42:33.763Z,73.18
2022-08-30T13:45:03.798Z,73.26
2022-08-30T13:47:35.027Z,73.24
2022-08-30T13:50:09.810Z,73.42
2022-08-30T13:52:39.550Z,73.70
2022-08-30T13:55:10.729Z,73.61
2022-08-30T13:57:57.624Z,73.76
2022-08-30T14:00:31.355Z,73.86
2022-08-30T14:03:05.157Z,73.89
2022-08-30T14:05:49.296Z,74.09
2022-08-30T14:11:12.788Z,74.51
2022-08-30T14:16:34.217Z,75.23
2022-08-30T14:19:05.650Z,75.39
2022-08-30T14:21:38.685Z,75.62
2022-08-30T14:24:08.900Z,75.68
2022-08-30T14:26:40.544Z,75.86
2022-08-30T14:29:12.776Z,75.87
2022-08-30T14:31:43.580Z,76.12
2022-08-30T14:34:14.733Z,76.42
2022-08-30T14:36:48.845Z,76.47
2022-08-30T14:39:23.064Z,76.59
2022-08-30T14:41:55.307Z,76.66
2022-08-30T14:44:26.810Z,76.79
2022-08-30T14:46:57.451Z,77.02
2022-08-30T14:49:27.880Z,77.11
2022-08-30T14:52:00.274Z,77.25
2022-08-30T14:54:31.916Z,77.46
2022-08-30T14:57:01.678Z,77.41
2022-08-30T14:59:31.711Z,77.38
2022-08-30T15:02:01.809Z,77.44
2022-08-30T15:04:32.149Z,77.30
2022-08-30T15:07:04.553Z,77.31
2022-08-30T15:09:34.727Z,77.24
2022-08-30T15:12:05.289Z,77.34
2022-08-30T15:14:38.085Z,77.50
2022-08-30T15:17:07.866Z,77.64
2022-08-30T15:19:39.616Z,77.74
2022-08-30T15:22:11.958Z,77.72
2022-08-30T15:24:41.849Z,78.03
2022-08-30T15:27:11.925Z,78.15
2022-08-30T15:29:42.387Z,78.49
2022-08-30T15:32:12.183Z,78.39
2022-08-30T15:34:41.896Z,78.63
2022-08-30T15:37:22.310Z,78.76
2022-08-30T15:39:52.180Z,78.77
2022-08-30T15:42:22.695Z,79.14
2022-08-30T15:44:53.868Z,79.28
2022-08-30T15:47:25.483Z,79.19
2022-08-30T15:49:58.376Z,79.20
2022-08-30T15:52:31.712Z,79.61
2022-08-30T15:55:02.120Z,79.85
2022-08-30T15:57:32.009Z,80.12
2022-08-30T16:00:02.118Z,80.43
2022-08-30T16:02:36.164Z,80.71
2022-08-30T16:05:06.865Z,81.02
2022-08-30T16:07:40.971Z,81.26
2022-08-30T16:10:12.337Z,81.40
2022-08-30T16:12:42.497Z,81.51
2022-08-30T16:15:14.005Z,81.78
2022-08-30T16:17:43.867Z,82.03
2022-08-30T16:20:14.159Z,81.88
2022-08-30T16:22:47.139Z,82.14
2022-08-30T16:25:17.376Z,82.09
2022-08-30T16:27:48.180Z,82.20
2022-08-30T16:30:18.036Z,82.40
2022-08-30T16:32:49.471Z,82.45
2022-08-30T16:35:19.494Z,82.60
2022-08-30T16:37:52.193Z,82.86
2022-08-30T16:40:22.005Z,82.91
2022-08-30T16:42:52.196Z,83.04
2022-08-30T16:45:22.073Z,82.74
2022-08-30T16:47:53.920Z,82.84
2022-08-30T16:50:24.261Z,82.94
2022-08-30T16:52:56.624Z,83.03
2022-08-30T16:55:26.869Z,83.06
2022-08-30T16:57:56.580Z,82.92
2022-08-30T17:00:26.841Z,83.01
2022-08-30T17:02:57.713Z,82.57
2022-08-30T17:05:28.524Z,82.57
2022-08-30T17:08:03.402Z,82.32
2022-08-30T17:10:33.483Z,82.27
2022-08-30T17:13:03.414Z,81.92
2022-08-30T17:15:34.370Z,81.68
2022-08-30T17:18:04.240Z,81.61
2022-08-30T17:20:35.122Z,81.32
2022-08-30T17:23:07.980Z,81.03
2022-08-30T17:25:38.058Z,80.90
2022-08-30T17:28:15.918Z,80.42
2022-08-30T17:30:45.672Z,80.35
2022-08-30T17:33:15.418Z,80.00
2022-08-30T17:35:47.915Z,79.92
2022-08-30T17:38:21.124Z,79.58
2022-08-30T17:40:50.887Z,79.50
2022-08-30T17:43:22.065Z,79.13
2022-08-30T17:45:51.826Z,79.05
2022-08-30T17:48:21.553Z,78.96
2022-08-30T17:50:58.010Z,78.84
2022-08-30T17:53:30.443Z,79.03
2022-08-30T17:56:00.206Z,79.29
2022-08-30T17:58:30.004Z,79.36
2022-08-30T18:01:11.686Z,79.59
2022-08-30T18:03:42.173Z,79.58
2022-08-30T18:06:15.726Z,79.76
2022-08-30T18:08:48.869Z,79.96
2022-08-30T18:11:19.914Z,80.09
2022-08-30T18:13:49.724Z,80.14
2022-08-30T18:16:21.723Z,80.00
2022-08-30T18:18:57.428Z,80.01
2022-08-30T18:21:28.393Z,79.87
2022-08-30T18:24:00.966Z,79.70
2022-08-30T18:26:32.035Z,79.59
2022-08-30T18:29:02.204Z,79.31
2022-08-30T18:31:32.223Z,79.05
2022-08-30T18:34:02.957Z,78.88
2022-08-30T18:36:33.317Z,78.85
2022-08-30T18:39:06.538Z,78.65
2022-08-30T18:41:39.191Z,78.59
2022-08-30T18:44:27.258Z,78.76
2022-08-30T18:47:00.147Z,78.61
2022-08-30T18:49:32.520Z,78.75
2022-08-30T18:52:03.129Z,78.86
2022-08-30T18:54:40.346Z,78.93
2022-08-30T18:57:10.496Z,78.97
2022-08-30T18:59:41.999Z,79.13
2022-08-30T19:02:14.849Z,79.37
2022-08-30T19:04:45.450Z,79.55
2022-08-30T19:07:16.992Z,79.60
2022-08-30T19:09:51.372Z,79.74
2022-08-30T19:12:21.123Z,79.97
2022-08-30T19:14:51.008Z,80.13
2022-08-30T19:17:20.933Z,80.11
2022-08-30T19:19:52.375Z,80.27
2022-08-30T19:22:24.519Z,80.31
2022-08-30T19:25:01.177Z,80.30
2022-08-30T19:27:37.423Z,80.12
2022-08-30T19:30:13.550Z,80.21
2022-08-30T19:32:47.206Z,80.25
2022-08-30T19:35:17.810Z,80.22
2022-08-30T19:37:49.380Z,80.42
2022-08-30T19:40:22.964Z,80.54
2022-08-30T19:42:53.279Z,80.49
2022-08-30T19:45:24.107Z,80.54
2022-08-30T19:47:54.903Z,80.53
2022-08-30T19:50:25.161Z,80.45
2022-08-30T19:52:55.393Z,80.61
2022-08-30T19:55:31.342Z,80.66
2022-08-30T19:58:01.656Z,80.68
2022-08-30T20:00:32.075Z,80.60
2022-08-30T20:03:02.313Z,80.55
2022-08-30T20:05:33.054Z,80.49
2022-08-30T20:08:02.967Z,80.45
2022-08-30T20:10:36.169Z,80.45
2022-08-30T20:13:07.151Z,80.40
2022-08-30T20:15:39.039Z,80.25
2022-08-30T20:18:14.180Z,80.17
2022-08-30T20:20:48.550Z,80.09
2022-08-30T20:26:12.630Z,79.80
2022-08-30T20:28:43.200Z,79.72
2022-08-30T20:31:13.393Z,79.32
2022-08-30T20:33:43.143Z,79.12
2022-08-30T20:36:13.429Z,78.82
2022-08-30T20:38:43.194Z,78.76
2022-08-30T20:41:18.134Z,78.64
2022-08-30T20:43:48.961Z,78.44
2022-08-30T20:46:21.120Z,78.21
2022-08-30T20:48:51.058Z,78.29
2022-08-30T20:51:23.522Z,77.81
2022-08-30T20:53:53.600Z,77.65
2022-08-30T20:56:27.811Z,77.70
2022-08-30T20:58:58.004Z,77.48
2022-08-30T21:01:28.347Z,77.29
2022-08-30T21:03:58.223Z,77.15
2022-08-30T21:06:27.975Z,77.03
2022-08-30T21:08:57.721Z,76.75
2022-08-30T21:11:31.742Z,76.65
2022-08-30T21:14:01.768Z,76.63
2022-08-30T21:16:34.396Z,76.46
2022-08-30T21:19:04.786Z,76.21
2022-08-30T21:21:34.716Z,76.29
2022-08-30T21:24:10.201Z,76.14
2022-08-30T21:26:43.998Z,76.10
2022-08-30T21:29:15.481Z,75.97
2022-08-30T21:31:45.294Z,75.82
2022-08-30T21:34:17.825Z,75.78
2022-08-30T21:36:48.624Z,75.61
2022-08-30T21:39:22.234Z,75.65
2022-08-30T21:41:57.086Z,75.43
2022-08-30T21:44:29.542Z,75.43
2022-08-30T21:46:59.271Z,75.35
2022-08-30T21:49:29.047Z,75.26
2022-08-30T21:51:59.163Z,75.05
2022-08-30T21:54:31.441Z,74.80
2022-08-30T21:57:05.420Z,74.74
2022-08-30T21:59:35.256Z,74.89
2022-08-30T22:02:04.941Z,74.55
2022-08-30T22:04:34.649Z,74.57
2022-08-30T22:07:06.533Z,74.63
2022-08-30T22:09:36.227Z,74.35
2022-08-30T22:12:10.165Z,74.17
2022-08-30T22:14:41.197Z,74.18
2022-08-30T22:17:11.003Z,74.26
2022-08-30T22:19:40.776Z,74.07
2022-08-30T22:22:11.232Z,74.35
2022-08-30T22:24:41.400Z,74.19
2022-08-30T22:27:13.730Z,74.26
2022-08-30T22:29:43.774Z,74.31
2022-08-30T22:32:13.552Z,74.24
2022-08-30T22:34:43.297Z,74.31
2022-08-30T22:37:13.020Z,74.34
2022-08-30T22:39:42.815Z,74.39
2022-08-30T22:42:15.117Z,74.25
2022-08-30T22:44:44.844Z,74.48
2022-08-30T22:47:14.645Z,74.54
2022-08-30T22:49:44.364Z,74.68
2022-08-30T22:52:14.500Z,74.82
2022-08-30T22:54:44.823Z,74.82
2022-08-30T22:57:19.550Z,74.97
2022-08-30T22:59:49.304Z,74.89
2022-08-30T23:02:19.054Z,75.05
2022-08-30T23:04:48.848Z,74.99
2022-08-30T23:07:18.552Z,75.14
2022-08-30T23:09:48.272Z,75.17
2022-08-30T23:12:20.774Z,75.29
2022-08-30T23:14:51.086Z,75.53
2022-08-30T23:17:20.849Z,75.52
2022-08-30T23:19:50.609Z,75.59
2022-08-30T23:22:20.338Z,75.58
2022-08-30T23:25:02.491Z,75.78
2022-08-30T23:27:47.242Z,75.90
2022-08-30T23:30:29.374Z,76.03
2022-08-30T23:33:11.819Z,76.25
2022-08-30T23:35:54.120Z,76.20
2022-08-30T23:38:36.356Z,76.29
2022-08-30T23:41:18.560Z,76.44
2022-08-30T23:44:03.310Z,76.50
2022-08-30T23:46:45.526Z,76.51
2022-08-30T23:49:27.704Z,76.58
2022-08-30T23:52:09.919Z,76.80
2022-08-30T23:54:52.048Z,76.81
2022-08-30T23:57:39.614Z,76.83
